Sutter Hill, California
Current Conditions -  °F | °C
As of 4:55 PM on Monday 26 Jan 2015 (Local Time) from KPVF Reporting Station
Clear Clear  
Wind Chill: 57°   Ceiling: Unl
Heat Index: 57°   Visibility: 10mi
Dew Point: 41°   Wind: 0mph
Humidity: 55%   Direction: NA
Pressure: 30.04"   Gusts: NA
Location:  38.4267°N, 120.781°W
Report Text: KPVF 270055Z AUTO 00000KT 10SM CLR 14/05 A3004 RMK AO1
Loading
Personal Weather Stations






























Interactive Weather Map New forecast layout! Learn more

10-Day Weather Forecast

Advertisements
Track Severe Weather on mobile